FRIANT DAM (MILLERTON) (MIL)

Elevation: 581' · SAN JOAQUIN R basin · Operator: US Bureau of Reclamation

Provisional data, subject to change.
Query executed Friday at 15:58:56   clock

Select a sensor type for a plot of data.
Note: Reservoir Flows are daily averages.

Earlier

Date RES ELE    STORAGE    RES CHG    TOC STO    ABV TOC    OUTFLOW    INFLOW    EVAP    FNF    RIV REL    PPT INC    SPILL   
 FEET   AF   AF   AF   AF   CFS   CFS   CFS   CFS   CFS   INCHES   CFS  
08/05/2015 485.40 175330 -698 520500 -345170 1520 1185 17 179 e 1245 0.00 0
08/06/2015 485.51 175614 284 520500 -344886 1315 1481 23 135 e 1183 0.00 0
08/07/2015 484.90 174040 -1574 520500 -- 1553 786 27 206 1422 0.00 0
08/08/2015 484.35 172631 -1409 520500 -347869 1379 695 26 135 e 1250 0.00 0
08/09/2015 483.94 171583 -1048 520500 -348917 1375 876 29 128 e 1247 0.00 0
08/10/2015 483.57 170644 -939 520500 -349856 1371 928 30 127 e 1245 0.00 0
08/11/2015 483.44 170314 -330 520500 -350186 1370 1229 25 139 e 1244 0.00 0
08/12/2015 483.50 170466 152 520500 -350034 1369 1471 25 139 e 1244 0.00 0
08/13/2015 483.54 170568 102 520500 -349932 1399 1477 27 139 e 1244 0.00 0
08/14/2015 483.78 171177 609 520500 -349323 1404 1738 27 120 1228 0.00 0
08/15/2015 483.49 170441 -736 520500 -350059 1528 1184 27 166 e 1269 0.00 0
08/16/2015 483.09 169425 -1016 520500 -351075 1623 1140 29 166 e 1251 0.00 0
08/17/2015 482.87 168870 -555 520500 -351630 1539 1290 31 192 1250 0.00 0
08/18/2015 482.53 168014 -856 520500 -352486 1498 1099 33 166 e 1249 0.00 0
08/19/2015 482.03 166756 -1258 520500 -353744 1493 886 27 166 e 1247 0.00 0
08/20/2015 481.48 165385 -1371 520500 -355115 1487 816 20 165 1245 0.00 0
08/21/2015 480.76 163596 -1789 520500 -356904 1450 572 24 77 e 1243 0.00 0
08/22/2015 480.07 161893 -1703 520500 -358607 1408 561 12 76 e 1239 0.00 0
08/23/2015 479.45 160382 -1511 520500 -360118 1418 678 22 77 e 1252 0.00 0
08/24/2015 478.97 159215 -1167 520500 -361285 1450 889 27 40 e 1257 0.00 0
08/25/2015 478.50 158082 -1133 520500 -362418 1538 989 22 40 e 1255 0.00 0
08/26/2015 478.07 157045 -1037 520500 -363455 1574 1082 31 56 1254 0.00 0
08/27/2015 477.83 156470 -575 520500 -364030 1534 1266 22 54 e 1252 0.00 0
08/28/2015 477.57 155849 -621 520500 -364651 1450 1166 29 54 e 1251 0.00 0
08/29/2015 477.82 156446 597 520500 -364054 1211 1541 29 48 e 1085 0.00 0
08/30/2015 477.82 156446 0 520500 -364054 927 949 22 44 e 801 0.00 0
08/31/2015 478.32 157648 1202 520500 -362852 586 1216 24 68 e 401 0.00 0
09/01/2015 478.80 158805 1157 520500 -361695 454 1055 18 61 e 225 0.00 0
09/02/2015 479.12 159579 774 520500 -360921 445 859 24 30 200 0.00 0
09/03/2015 479.45 160382 803 520500 -360118 456 881 20 150 200 0.00 0
09/04/2015 -- -- -- -- -- -- -- -- -- -- -- --

Later | Latest

Warning! This data is preliminary and subject to revision.

Show MIL Map | Plot MIL Data | 1 Month MIL Data | Real-Time MIL Data | MIL Info